Troy, OH (45373)

4:41 PM EDT on June 24, 2017 (GMT -0400)
Creekwood Subdivision Troy | | Change Station

Elev 840 ft 40.01 °N, 84.21 °W | Updated 2 minutes ago

Mostly Cloudy
Mostly Cloudy
77.5 °F
Feels Like 79 °F
N
0.0
Wind Variable Wind from North
Gusts 4.0 mph

Today
High -- | Low -- °F
--% Chance of Precip.
Yesterday
High -- | Low -- °F
Precip. -- in
Pressure 29.99 in
Visibility 10.0 miles
Clouds Few 5000 ft
Scattered Clouds 6000 ft
Scattered Clouds 9000 ft
Mostly Cloudy 25000 ft
Heat Index 79 °F
Dew Point 59 °F
Humidity 53%
Rainfall 0.00 in
Snow Depth Not available.
6:08 AM 9:09 PM
New Moon, 1% visible
METAR KDAY 241956Z 27014KT 10SM FEW050 SCT060 SCT090 BKN250 23/13 A3000 RMK AO2 SLP154 T02330128 $
Pressure 29.99 in
Visibility 10.0 miles
Clouds Few 5000 ft
Scattered Clouds 6000 ft
Scattered Clouds 9000 ft
Mostly Cloudy 25000 ft
Heat Index 79 °F
Dew Point 59 °F
Humidity 53%
Rainfall 0.00 in
Snow Depth Not available.
6:08 AM 9:09 PM
New Moon, 1% visible
METAR KDAY 241956Z 27014KT 10SM FEW050 SCT060 SCT090 BKN250 23/13 A3000 RMK AO2 SLP154 T02330128 $

Get Severe Weather Alerts

Thanks for signing up!

Be on the lookout for a verification email in your inbox.

You'll start receiving the daily forecast at 6 AM.

×

10-Day Weather Forecast

Almanac

Astronomy

Jun. 24, 2017 Rise Set
Actual Time
Civil Twilight
Nautical Twilight
Astronomical Twilight
Moon
Length of Visible Light
Length of Day
Tomorrow will be .
, % of the Moon is Illuminated

Today's Extremes

State Highs State Lows

Community

WunderPhotos

Category 6

Welcome to Category 6. This is the collective home for Weather Underground's featured writeups by Dr. Jeff Masters (right), Bob Henson (left), Chris Burt, and other regular contributors.

Nearby

Air Quality

  Air Quality AQ Index Pollutant
Not available.

Snow Depth

Station Depth Elevation

Earthquake Activity

City Distance Mag. Time & Date
Minimum magnitude displayed is 2.5.

Coastal Water Temperatures

Place Temperature

Stations

Nearby Weather Stations

Station Location Temp. Windchill Dew Point Humidity Wind Precip. Elev Updated Type
                   

Watches & Warnings

There are currently no watches in effect.